sensor_id;sensor_type;location;lat;lon;timestamp;temperature;humidity
47618;DHT22;33336;36.728;-4.414;2023-05-10T00:02:31;28.40;75.50
47618;DHT22;33336;36.728;-4.414;2023-05-10T00:07:35;28.30;75.10
47618;DHT22;33336;36.728;-4.414;2023-05-10T00:12:39;28.30;75.20
47618;DHT22;33336;36.728;-4.414;2023-05-10T00:17:42;28.30;74.80
47618;DHT22;33336;36.728;-4.414;2023-05-10T00:22:46;28.20;74.90
47618;DHT22;33336;36.728;-4.414;2023-05-10T00:27:49;28.10;74.60
47618;DHT22;33336;36.728;-4.414;2023-05-10T00:32:53;28.00;74.60
47618;DHT22;33336;36.728;-4.414;2023-05-10T00:37:57;27.90;75.00
47618;DHT22;33336;36.728;-4.414;2023-05-10T00:43:01;28.00;74.70
47618;DHT22;33336;36.728;-4.414;2023-05-10T00:48:05;28.00;73.90
47618;DHT22;33336;36.728;-4.414;2023-05-10T00:53:09;27.80;75.10
47618;DHT22;33336;36.728;-4.414;2023-05-10T00:58:12;27.80;74.70
47618;DHT22;33336;36.728;-4.414;2023-05-10T01:03:16;27.90;74.60
47618;DHT22;33336;36.728;-4.414;2023-05-10T01:08:20;27.90;74.90
47618;DHT22;33336;36.728;-4.414;2023-05-10T01:13:31;27.90;74.60
47618;DHT22;33336;36.728;-4.414;2023-05-10T01:18:38;27.50;75.90
47618;DHT22;33336;36.728;-4.414;2023-05-10T01:35:13;27.60;74.90
47618;DHT22;33336;36.728;-4.414;2023-05-10T01:40:23;27.50;75.10
47618;DHT22;33336;36.728;-4.414;2023-05-10T01:45:33;27.30;74.50
47618;DHT22;33336;36.728;-4.414;2023-05-10T01:50:43;26.70;75.50
47618;DHT22;33336;36.728;-4.414;2023-05-10T01:55:48;26.60;75.70
47618;DHT22;33336;36.728;-4.414;2023-05-10T02:00:52;26.70;75.90
47618;DHT22;33336;36.728;-4.414;2023-05-10T02:05:59;26.50;75.60
47618;DHT22;33336;36.728;-4.414;2023-05-10T02:11:03;26.50;75.60
47618;DHT22;33336;36.728;-4.414;2023-05-10T02:16:07;26.50;75.60
47618;DHT22;33336;36.728;-4.414;2023-05-10T02:21:14;26.40;75.90
47618;DHT22;33336;36.728;-4.414;2023-05-10T02:26:18;26.30;75.30
47618;DHT22;33336;36.728;-4.414;2023-05-10T02:31:25;26.30;75.40
47618;DHT22;33336;36.728;-4.414;2023-05-10T02:36:30;26.20;75.40
47618;DHT22;33336;36.728;-4.414;2023-05-10T02:41:33;26.10;75.50
47618;DHT22;33336;36.728;-4.414;2023-05-10T02:46:36;26.30;75.50
47618;DHT22;33336;36.728;-4.414;2023-05-10T02:51:44;26.30;75.40
47618;DHT22;33336;36.728;-4.414;2023-05-10T02:56:53;26.20;75.40
47618;DHT22;33336;36.728;-4.414;2023-05-10T03:01:58;26.30;75.00
47618;DHT22;33336;36.728;-4.414;2023-05-10T03:07:03;26.00;75.60
47618;DHT22;33336;36.728;-4.414;2023-05-10T03:12:11;25.90;75.90
47618;DHT22;33336;36.728;-4.414;2023-05-10T03:17:20;25.80;75.60
47618;DHT22;33336;36.728;-4.414;2023-05-10T03:22:31;25.80;75.90
47618;DHT22;33336;36.728;-4.414;2023-05-10T03:27:36;26.00;75.50
47618;DHT22;33336;36.728;-4.414;2023-05-10T03:32:39;26.00;75.90
47618;DHT22;33336;36.728;-4.414;2023-05-10T03:37:43;25.70;75.80
47618;DHT22;33336;36.728;-4.414;2023-05-10T03:42:47;25.90;76.20
47618;DHT22;33336;36.728;-4.414;2023-05-10T03:47:50;25.90;76.00
47618;DHT22;33336;36.728;-4.414;2023-05-10T03:52:54;25.90;75.80
47618;DHT22;33336;36.728;-4.414;2023-05-10T03:57:58;26.00;75.70
47618;DHT22;33336;36.728;-4.414;2023-05-10T04:03:01;26.10;84.40
47618;DHT22;33336;36.728;-4.414;2023-05-10T04:08:05;25.10;94.00
47618;DHT22;33336;36.728;-4.414;2023-05-10T04:13:09;24.60;99.60
47618;DHT22;33336;36.728;-4.414;2023-05-10T04:18:12;24.50;99.90
47618;DHT22;33336;36.728;-4.414;2023-05-10T04:23:16;24.60;99.60
47618;DHT22;33336;36.728;-4.414;2023-05-10T04:28:19;24.50;99.70
47618;DHT22;33336;36.728;-4.414;2023-05-10T04:33:23;24.40;99.90
47618;DHT22;33336;36.728;-4.414;2023-05-10T04:38:28;24.50;99.90
47618;DHT22;33336;36.728;-4.414;2023-05-10T04:43:31;24.40;99.90
47618;DHT22;33336;36.728;-4.414;2023-05-10T04:48:34;24.20;99.90
47618;DHT22;33336;36.728;-4.414;2023-05-10T04:53:38;24.30;99.90
47618;DHT22;33336;36.728;-4.414;2023-05-10T04:58:43;24.10;99.90
47618;DHT22;33336;36.728;-4.414;2023-05-10T05:03:46;23.80;99.90
47618;DHT22;33336;36.728;-4.414;2023-05-10T05:08:50;24.00;99.90
47618;DHT22;33336;36.728;-4.414;2023-05-10T05:13:53;23.80;99.90
47618;DHT22;33336;36.728;-4.414;2023-05-10T05:18:57;23.80;99.90
47618;DHT22;33336;36.728;-4.414;2023-05-10T05:24:01;23.60;99.90
47618;DHT22;33336;36.728;-4.414;2023-05-10T05:29:05;23.50;99.90
47618;DHT22;33336;36.728;-4.414;2023-05-10T05:34:08;23.80;99.90
47618;DHT22;33336;36.728;-4.414;2023-05-10T05:39:13;23.70;99.90
47618;DHT22;33336;36.728;-4.414;2023-05-10T05:44:16;24.00;99.90
47618;DHT22;33336;36.728;-4.414;2023-05-10T05:49:20;23.80;99.90
47618;DHT22;33336;36.728;-4.414;2023-05-10T05:54:24;24.00;99.90
47618;DHT22;33336;36.728;-4.414;2023-05-10T05:59:28;24.20;99.90
47618;DHT22;33336;36.728;-4.414;2023-05-10T06:04:31;23.70;99.90
47618;DHT22;33336;36.728;-4.414;2023-05-10T06:09:35;24.00;99.90
47618;DHT22;33336;36.728;-4.414;2023-05-10T06:14:38;24.20;99.90
47618;DHT22;33336;36.728;-4.414;2023-05-10T06:19:41;24.60;99.90
47618;DHT22;33336;36.728;-4.414;2023-05-10T06:24:45;24.30;99.90
47618;DHT22;33336;36.728;-4.414;2023-05-10T06:29:49;24.60;99.90
47618;DHT22;33336;36.728;-4.414;2023-05-10T06:34:52;24.80;99.90
47618;DHT22;33336;36.728;-4.414;2023-05-10T06:39:57;24.80;99.90
47618;DHT22;33336;36.728;-4.414;2023-05-10T06:45:00;24.50;99.90
47618;DHT22;33336;36.728;-4.414;2023-05-10T06:50:04;24.50;99.90
47618;DHT22;33336;36.728;-4.414;2023-05-10T06:55:09;24.60;99.90
47618;DHT22;33336;36.728;-4.414;2023-05-10T07:00:14;24.20;99.90
47618;DHT22;33336;36.728;-4.414;2023-05-10T07:05:16;24.30;99.90
47618;DHT22;33336;36.728;-4.414;2023-05-10T07:10:21;24.70;99.90
47618;DHT22;33336;36.728;-4.414;2023-05-10T07:15:24;24.50;99.90
47618;DHT22;33336;36.728;-4.414;2023-05-10T07:20:28;23.90;99.90
47618;DHT22;33336;36.728;-4.414;2023-05-10T07:25:32;23.80;99.90
47618;DHT22;33336;36.728;-4.414;2023-05-10T07:30:35;24.40;99.90
47618;DHT22;33336;36.728;-4.414;2023-05-10T07:35:38;24.00;99.90
47618;DHT22;33336;36.728;-4.414;2023-05-10T07:40:44;24.40;99.90
47618;DHT22;33336;36.728;-4.414;2023-05-10T07:45:47;24.20;99.90
47618;DHT22;33336;36.728;-4.414;2023-05-10T07:50:50;24.10;99.90
47618;DHT22;33336;36.728;-4.414;2023-05-10T07:55:56;24.60;99.90
47618;DHT22;33336;36.728;-4.414;2023-05-10T08:01:00;24.80;99.90
47618;DHT22;33336;36.728;-4.414;2023-05-10T08:06:03;23.80;99.90
47618;DHT22;33336;36.728;-4.414;2023-05-10T08:11:07;23.90;99.90
47618;DHT22;33336;36.728;-4.414;2023-05-10T08:16:10;24.00;99.90
47618;DHT22;33336;36.728;-4.414;2023-05-10T08:21:14;24.40;99.90
47618;DHT22;33336;36.728;-4.414;2023-05-10T08:26:18;24.80;99.90
47618;DHT22;33336;36.728;-4.414;2023-05-10T08:31:23;24.30;99.60
47618;DHT22;33336;36.728;-4.414;2023-05-10T08:36:25;24.70;99.90
47618;DHT22;33336;36.728;-4.414;2023-05-10T08:41:33;25.30;99.10
47618;DHT22;33336;36.728;-4.414;2023-05-10T08:46:41;25.70;98.60
47618;DHT22;33336;36.728;-4.414;2023-05-10T08:51:51;25.70;98.50
47618;DHT22;33336;36.728;-4.414;2023-05-10T08:56:56;25.90;98.60
47618;DHT22;33336;36.728;-4.414;2023-05-10T09:02:00;25.70;97.90
47618;DHT22;33336;36.728;-4.414;2023-05-10T09:07:04;25.20;98.10
47618;DHT22;33336;36.728;-4.414;2023-05-10T09:12:09;25.10;98.20
47618;DHT22;33336;36.728;-4.414;2023-05-10T09:17:12;25.00;98.90
47618;DHT22;33336;36.728;-4.414;2023-05-10T09:22:16;25.20;98.30
47618;DHT22;33336;36.728;-4.414;2023-05-10T09:27:28;25.10;98.30
47618;DHT22;33336;36.728;-4.414;2023-05-10T09:32:37;25.00;98.70
47618;DHT22;33336;36.728;-4.414;2023-05-10T09:37:41;24.90;99.10
47618;DHT22;33336;36.728;-4.414;2023-05-10T09:42:53;24.80;99.00
47618;DHT22;33336;36.728;-4.414;2023-05-10T09:47:57;25.80;98.30
47618;DHT22;33336;36.728;-4.414;2023-05-10T09:53:01;26.30;97.80
47618;DHT22;33336;36.728;-4.414;2023-05-10T09:58:06;25.80;97.70
47618;DHT22;33336;36.728;-4.414;2023-05-10T10:03:13;25.40;98.30
47618;DHT22;33336;36.728;-4.414;2023-05-10T10:08:17;25.70;98.60
47618;DHT22;33336;36.728;-4.414;2023-05-10T10:13:22;25.90;98.20
47618;DHT22;33336;36.728;-4.414;2023-05-10T10:18:25;26.30;97.60
47618;DHT22;33336;36.728;-4.414;2023-05-10T10:23:30;26.70;97.20
47618;DHT22;33336;36.728;-4.414;2023-05-10T10:28:38;25.70;98.20
47618;DHT22;33336;36.728;-4.414;2023-05-10T10:33:55;26.30;97.70
47618;DHT22;33336;36.728;-4.414;2023-05-10T10:39:00;26.90;97.00
47618;DHT22;33336;36.728;-4.414;2023-05-10T10:44:37;26.00;97.90
47618;DHT22;33336;36.728;-4.414;2023-05-10T10:49:49;26.20;97.30
47618;DHT22;33336;36.728;-4.414;2023-05-10T10:54:56;26.40;96.90
47618;DHT22;33336;36.728;-4.414;2023-05-10T11:00:29;25.60;97.20
47618;DHT22;33336;36.728;-4.414;2023-05-10T11:05:38;25.70;97.20
47618;DHT22;33336;36.728;-4.414;2023-05-10T11:10:50;26.30;96.90
47618;DHT22;33336;36.728;-4.414;2023-05-10T11:15:56;26.60;97.10
47618;DHT22;33336;36.728;-4.414;2023-05-10T11:21:01;27.20;96.10
47618;DHT22;33336;36.728;-4.414;2023-05-10T11:26:07;27.00;96.30
47618;DHT22;33336;36.728;-4.414;2023-05-10T11:31:15;26.20;96.40
47618;DHT22;33336;36.728;-4.414;2023-05-10T11:36:19;26.00;96.80
47618;DHT22;33336;36.728;-4.414;2023-05-10T11:41:23;26.00;97.00
47618;DHT22;33336;36.728;-4.414;2023-05-10T11:46:28;26.60;96.30
47618;DHT22;33336;36.728;-4.414;2023-05-10T11:51:34;26.80;95.30
47618;DHT22;33336;36.728;-4.414;2023-05-10T11:56:40;27.30;95.20
47618;DHT22;33336;36.728;-4.414;2023-05-10T12:01:44;26.60;95.70
47618;DHT22;33336;36.728;-4.414;2023-05-10T12:06:48;26.10;96.20
47618;DHT22;33336;36.728;-4.414;2023-05-10T12:11:55;25.80;96.50
47618;DHT22;33336;36.728;-4.414;2023-05-10T12:17:00;27.00;95.40
47618;DHT22;33336;36.728;-4.414;2023-05-10T12:22:04;27.00;94.90
47618;DHT22;33336;36.728;-4.414;2023-05-10T12:27:08;27.50;94.70
47618;DHT22;33336;36.728;-4.414;2023-05-10T12:32:12;27.60;94.00
47618;DHT22;33336;36.728;-4.414;2023-05-10T12:37:15;27.40;93.20
47618;DHT22;33336;36.728;-4.414;2023-05-10T12:42:21;27.60;93.00
47618;DHT22;33336;36.728;-4.414;2023-05-10T12:47:28;27.70;91.70
47618;DHT22;33336;36.728;-4.414;2023-05-10T12:52:31;28.70;91.80
47618;DHT22;33336;36.728;-4.414;2023-05-10T12:57:35;28.00;91.70
47618;DHT22;33336;36.728;-4.414;2023-05-10T13:02:39;27.20;92.40
47618;DHT22;33336;36.728;-4.414;2023-05-10T13:07:42;27.50;91.90
47618;DHT22;33336;36.728;-4.414;2023-05-10T13:12:45;28.60;90.60
47618;DHT22;33336;36.728;-4.414;2023-05-10T13:17:50;29.60;90.70
47618;DHT22;33336;36.728;-4.414;2023-05-10T13:22:54;29.70;89.40
47618;DHT22;33336;36.728;-4.414;2023-05-10T13:27:59;29.70;88.30
47618;DHT22;33336;36.728;-4.414;2023-05-10T13:33:03;30.10;86.30
47618;DHT22;33336;36.728;-4.414;2023-05-10T13:38:06;30.00;86.70
47618;DHT22;33336;36.728;-4.414;2023-05-10T13:43:09;28.90;87.50
47618;DHT22;33336;36.728;-4.414;2023-05-10T13:48:14;28.50;89.30
47618;DHT22;33336;36.728;-4.414;2023-05-10T13:53:17;29.20;87.80
47618;DHT22;33336;36.728;-4.414;2023-05-10T13:58:21;28.90;86.10
47618;DHT22;33336;36.728;-4.414;2023-05-10T14:03:26;27.60;89.00
47618;DHT22;33336;36.728;-4.414;2023-05-10T14:08:29;27.30;90.00
47618;DHT22;33336;36.728;-4.414;2023-05-10T14:13:31;27.50;90.70
47618;DHT22;33336;36.728;-4.414;2023-05-10T14:18:36;28.10;90.00
47618;DHT22;33336;36.728;-4.414;2023-05-10T14:23:39;27.80;89.90
47618;DHT22;33336;36.728;-4.414;2023-05-10T14:28:43;27.80;90.10
47618;DHT22;33336;36.728;-4.414;2023-05-10T14:33:47;28.80;88.60
47618;DHT22;33336;36.728;-4.414;2023-05-10T14:38:50;29.30;88.70
47618;DHT22;33336;36.728;-4.414;2023-05-10T14:43:53;29.60;88.30
47618;DHT22;33336;36.728;-4.414;2023-05-10T14:48:57;30.00;86.30
47618;DHT22;33336;36.728;-4.414;2023-05-10T14:54:00;30.30;86.50
47618;DHT22;33336;36.728;-4.414;2023-05-10T14:59:04;30.60;86.30
47618;DHT22;33336;36.728;-4.414;2023-05-10T15:04:08;30.90;84.60
47618;DHT22;33336;36.728;-4.414;2023-05-10T15:09:12;30.20;83.70
47618;DHT22;33336;36.728;-4.414;2023-05-10T15:14:16;30.90;83.40
47618;DHT22;33336;36.728;-4.414;2023-05-10T15:19:22;30.80;83.20
47618;DHT22;33336;36.728;-4.414;2023-05-10T15:24:25;31.60;83.80
47618;DHT22;33336;36.728;-4.414;2023-05-10T15:29:29;31.90;82.50
47618;DHT22;33336;36.728;-4.414;2023-05-10T15:34:34;31.80;82.00
47618;DHT22;33336;36.728;-4.414;2023-05-10T15:39:38;32.20;83.10
47618;DHT22;33336;36.728;-4.414;2023-05-10T15:44:41;32.60;81.60
47618;DHT22;33336;36.728;-4.414;2023-05-10T15:49:48;31.10;84.80
47618;DHT22;33336;36.728;-4.414;2023-05-10T15:54:51;30.70;84.50
47618;DHT22;33336;36.728;-4.414;2023-05-10T15:59:55;31.10;83.90
47618;DHT22;33336;36.728;-4.414;2023-05-10T16:04:59;32.70;82.40
47618;DHT22;33336;36.728;-4.414;2023-05-10T16:10:04;34.80;78.30
47618;DHT22;33336;36.728;-4.414;2023-05-10T16:15:08;35.60;78.30
47618;DHT22;33336;36.728;-4.414;2023-05-10T16:20:14;37.50;73.80
47618;DHT22;33336;36.728;-4.414;2023-05-10T16:25:16;36.60;72.30
47618;DHT22;33336;36.728;-4.414;2023-05-10T16:30:20;36.30;72.10
47618;DHT22;33336;36.728;-4.414;2023-05-10T16:35:25;34.00;74.00
47618;DHT22;33336;36.728;-4.414;2023-05-10T16:40:31;33.20;75.40
47618;DHT22;33336;36.728;-4.414;2023-05-10T16:45:34;33.10;75.80
47618;DHT22;33336;36.728;-4.414;2023-05-10T16:50:42;33.60;75.00
47618;DHT22;33336;36.728;-4.414;2023-05-10T16:55:45;31.90;77.20
47618;DHT22;33336;36.728;-4.414;2023-05-10T17:00:49;31.40;78.70
47618;DHT22;33336;36.728;-4.414;2023-05-10T17:05:53;31.10;80.00
47618;DHT22;33336;36.728;-4.414;2023-05-10T17:11:00;31.90;79.20
47618;DHT22;33336;36.728;-4.414;2023-05-10T17:16:03;32.60;77.70
47618;DHT22;33336;36.728;-4.414;2023-05-10T17:21:09;33.20;77.10
47618;DHT22;33336;36.728;-4.414;2023-05-10T17:26:12;32.20;77.80
47618;DHT22;33336;36.728;-4.414;2023-05-10T17:31:16;32.30;78.00
47618;DHT22;33336;36.728;-4.414;2023-05-10T17:36:20;32.30;78.10
47618;DHT22;33336;36.728;-4.414;2023-05-10T17:41:24;31.70;78.00
47618;DHT22;33336;36.728;-4.414;2023-05-10T17:46:27;31.00;79.30
47618;DHT22;33336;36.728;-4.414;2023-05-10T17:51:33;31.60;79.10
47618;DHT22;33336;36.728;-4.414;2023-05-10T17:56:36;31.90;79.10
47618;DHT22;33336;36.728;-4.414;2023-05-10T18:01:40;31.00;80.30
47618;DHT22;33336;36.728;-4.414;2023-05-10T18:06:44;31.10;79.30
47618;DHT22;33336;36.728;-4.414;2023-05-10T18:11:48;30.80;80.90
47618;DHT22;33336;36.728;-4.414;2023-05-10T18:16:51;28.70;83.90
47618;DHT22;33336;36.728;-4.414;2023-05-10T18:21:56;30.30;83.00
47618;DHT22;33336;36.728;-4.414;2023-05-10T18:26:59;30.80;81.30
47618;DHT22;33336;36.728;-4.414;2023-05-10T18:32:03;29.50;84.30
47618;DHT22;33336;36.728;-4.414;2023-05-10T18:37:08;29.10;83.10
47618;DHT22;33336;36.728;-4.414;2023-05-10T18:42:12;29.50;82.70
47618;DHT22;33336;36.728;-4.414;2023-05-10T18:47:15;30.80;82.60
47618;DHT22;33336;36.728;-4.414;2023-05-10T18:52:21;32.40;81.70
47618;DHT22;33336;36.728;-4.414;2023-05-10T18:57:24;32.40;79.90
47618;DHT22;33336;36.728;-4.414;2023-05-10T19:02:28;31.70;80.10
47618;DHT22;33336;36.728;-4.414;2023-05-10T19:07:32;30.60;81.50
47618;DHT22;33336;36.728;-4.414;2023-05-10T19:12:36;29.70;82.90
47618;DHT22;33336;36.728;-4.414;2023-05-10T19:17:41;29.50;83.30
47618;DHT22;33336;36.728;-4.414;2023-05-10T19:22:46;29.20;84.20
47618;DHT22;33336;36.728;-4.414;2023-05-10T19:27:50;29.10;84.10
47618;DHT22;33336;36.728;-4.414;2023-05-10T19:32:54;28.40;85.20
47618;DHT22;33336;36.728;-4.414;2023-05-10T19:37:59;27.90;86.60
47618;DHT22;33336;36.728;-4.414;2023-05-10T19:43:03;27.50;87.40
47618;DHT22;33336;36.728;-4.414;2023-05-10T19:48:07;27.40;87.90
47618;DHT22;33336;36.728;-4.414;2023-05-10T19:53:12;27.40;87.50
47618;DHT22;33336;36.728;-4.414;2023-05-10T19:58:15;27.30;87.40
47618;DHT22;33336;36.728;-4.414;2023-05-10T20:03:19;27.20;87.70
47618;DHT22;33336;36.728;-4.414;2023-05-10T20:08:23;27.00;87.50
47618;DHT22;33336;36.728;-4.414;2023-05-10T20:13:27;26.90;88.00
47618;DHT22;33336;36.728;-4.414;2023-05-10T20:18:30;25.90;90.20
47618;DHT22;33336;36.728;-4.414;2023-05-10T20:23:36;25.60;90.60
47618;DHT22;33336;36.728;-4.414;2023-05-10T20:28:39;25.40;91.30
47618;DHT22;33336;36.728;-4.414;2023-05-10T20:33:43;25.20;92.50
47618;DHT22;33336;36.728;-4.414;2023-05-10T20:38:47;25.10;93.30
47618;DHT22;33336;36.728;-4.414;2023-05-10T20:43:51;24.70;94.50
47618;DHT22;33336;36.728;-4.414;2023-05-10T20:48:54;25.10;93.90
47618;DHT22;33336;36.728;-4.414;2023-05-10T20:53:59;24.70;94.90
47618;DHT22;33336;36.728;-4.414;2023-05-10T20:59:04;24.60;95.10
47618;DHT22;33336;36.728;-4.414;2023-05-10T21:04:08;24.10;96.50
47618;DHT22;33336;36.728;-4.414;2023-05-10T21:09:12;24.70;96.20
47618;DHT22;33336;36.728;-4.414;2023-05-10T21:14:17;24.60;96.90
47618;DHT22;33336;36.728;-4.414;2023-05-10T21:19:19;24.70;96.80
47618;DHT22;33336;36.728;-4.414;2023-05-10T21:24:25;25.00;96.30
47618;DHT22;33336;36.728;-4.414;2023-05-10T21:29:28;25.00;96.40
47618;DHT22;33336;36.728;-4.414;2023-05-10T21:34:32;25.00;96.80
47618;DHT22;33336;36.728;-4.414;2023-05-10T21:39:36;25.10;97.00
47618;DHT22;33336;36.728;-4.414;2023-05-10T21:44:40;24.70;97.50
47618;DHT22;33336;36.728;-4.414;2023-05-10T21:49:43;24.30;98.30
47618;DHT22;33336;36.728;-4.414;2023-05-10T21:54:49;23.40;99.90
47618;DHT22;33336;36.728;-4.414;2023-05-10T21:59:52;23.20;99.90
47618;DHT22;33336;36.728;-4.414;2023-05-10T22:04:56;22.90;99.90
47618;DHT22;33336;36.728;-4.414;2023-05-10T22:10:00;22.60;99.90
47618;DHT22;33336;36.728;-4.414;2023-05-10T22:15:04;22.90;99.90
47618;DHT22;33336;36.728;-4.414;2023-05-10T22:20:08;23.60;99.90
47618;DHT22;33336;36.728;-4.414;2023-05-10T22:25:14;24.00;99.90
47618;DHT22;33336;36.728;-4.414;2023-05-10T22:30:16;23.80;99.90
47618;DHT22;33336;36.728;-4.414;2023-05-10T22:35:21;24.00;99.90
47618;DHT22;33336;36.728;-4.414;2023-05-10T22:40:25;24.00;99.90
47618;DHT22;33336;36.728;-4.414;2023-05-10T22:45:29;24.10;99.90
47618;DHT22;33336;36.728;-4.414;2023-05-10T22:50:31;24.20;99.90
47618;DHT22;33336;36.728;-4.414;2023-05-10T22:55:37;23.60;99.90
47618;DHT22;33336;36.728;-4.414;2023-05-10T23:00:40;23.20;99.90
47618;DHT22;33336;36.728;-4.414;2023-05-10T23:05:43;23.10;99.90
47618;DHT22;33336;36.728;-4.414;2023-05-10T23:10:48;23.10;99.90
47618;DHT22;33336;36.728;-4.414;2023-05-10T23:15:51;23.20;99.90
47618;DHT22;33336;36.728;-4.414;2023-05-10T23:20:54;23.40;99.90
47618;DHT22;33336;36.728;-4.414;2023-05-10T23:25:59;23.50;99.90
47618;DHT22;33336;36.728;-4.414;2023-05-10T23:31:04;23.30;99.90
47618;DHT22;33336;36.728;-4.414;2023-05-10T23:36:07;23.80;99.90
47618;DHT22;33336;36.728;-4.414;2023-05-10T23:41:11;23.70;99.90
47618;DHT22;33336;36.728;-4.414;2023-05-10T23:46:15;23.30;99.90
47618;DHT22;33336;36.728;-4.414;2023-05-10T23:51:18;23.10;99.90
47618;DHT22;33336;36.728;-4.414;2023-05-10T23:56:24;23.40;99.90
